Airfield :
LOGIN :

Register | Disclaimer

   EN    FR    IT 

 










Legend :    VFR   Marginal VFR   IFR   Intensive IFR   Very Intensive IFR
Visi :
Ceiling :
>= 8 km
>= 3000ft
5 to 8 km
1000 to 3000 ft
1500m to 5 km
500 to 1000 ft
800 to 1500m
200 to 500 ft
< 800m
< 200 ft
Symbols :   Thunderstorms  Fog  Heavy snow  Heavy precipitations  Wind > 20 kt
SIGMETs :     Misc.  Thunderstorms  Icing  Turbulence  Mountain Waves  Volcanic Ashes






- Airport Elevation : 286 ft
- IATA code : FFD


EGVA - RAF Fairford

CURRENT METAR :
  • 190956Z AUTO 31004KT 9999 FEW047 SCT085 16/14 A2996 RMK AO2 SLP148 T01590136 $

EXPIRED METARs :
  • 190856Z AUTO 27005KT 9999 CLR 14/14 A2995 RMK AO2 DZB25E34DZB34E34 SLP145 P0000 60001 T01410139 52012 $
  • 190834Z AUTO 28004KT 9999 FEW050 14/14 A2994 RMK AO2 DZB25E34DZB34 SLP141 $
  • 190825Z AUTO 27003KT 9999 -DZ FEW050 14/14 A2993 RMK AO2 DZB25 SLP138 $
  • 190756Z AUTO 00000KT 9999 FEW022 FEW047 13/13 A2993 RMK AO2 DZE05DZB05E05RAB30E43DZB43E45DZB45E45 SLP138 P0001 T01340132 $
  • 190745Z AUTO 00000KT 9999 FEW022 SCT035 13/13 A2993 RMK AO2 DZE05DZB05E05RAB30E43DZB43E45DZB45 SLP138 $
  • 190730Z AUTO 00000KT 9999 -RA FEW026 BKN034 BKN044 13/13 A2993 RMK AO2 DZE05DZB05E05RAB30 SLP138 $
  • 190720Z AUTO 00000KT 9999 BKN033 13/13 A2993 RMK AO2 DZE05DZB05E05 SLP138 $
  • 190705Z AUTO 29003KT 9999 SCT028 BKN036 13/13 A2993 RMK AO2 DZE05DZB05 SLP138 $

TAF AMD TAF EGVA
Valid from the 18 at 11:00 until the 19 at 13:00 UTC


181145Z 1811/1913 VRB06KT 9999 FEW020 QNH2991INS
BECMG 1811/1812 17010G15KT 9999 SCT030 QNH2987INS
TEMPO 1812/1817 8000 -RA BKN030
BECMG 1817/1818 VRB06KT 9999 BKN030 OVC045 QNH2989INS
BECMG 1818/1819 VRB06KT 9999 BKN030 OVC045 QNH2987INS
BECMG 1903/1904 VRB06KT 5000 BR FEW014 FEW021 BKN029 QNH2987INS
BECMG 1904/1905 VRB06KT 1800 BR OVC015 QNH2987INS
TEMPO 1905/1908 0800 FG OVC000
BECMG 1911/1912 29009KT 9999 NSW BKN015 OVC025 QNH2995INS TX21/1813Z TN13/1905Z LAST NO AMDS AFT 1812 NEXT 2006



MET'MAP, your aeronautical weather chart ! - Copyright ORBIFLY December 2007 - Disclaimer

ORBIFLY MET'MAP TEAM :

Programming & Development : Alexandra Zaïnal
Concept & original design : Baudouin d'Aumeries
Assistance for programming : Marc-Olivier Méhu
Technical & hardware support : Manuel Goepfert

Contact : metmap@orbifly.com




SOURCES & CREDITS :

   NOAA